createdAt,value
2022-12-06T00:00:53.695Z,45.20
2022-12-06T00:03:26.825Z,42.60
2022-12-06T00:06:06.534Z,42.30
2022-12-06T00:08:42.684Z,43.60
2022-12-06T00:11:17.528Z,44.20
2022-12-06T00:13:53.746Z,41.20
2022-12-06T00:16:26.959Z,41.10
2022-12-06T00:19:00.925Z,39.00
2022-12-06T00:21:38.045Z,39.70
2022-12-06T00:24:19.238Z,40.00
2022-12-06T00:26:52.715Z,41.10
2022-12-06T00:29:26.547Z,40.10
2022-12-06T00:34:29.963Z,39.30
2022-12-06T00:37:02.929Z,43.50
2022-12-06T00:39:35.894Z,42.90
2022-12-06T00:42:08.645Z,35.20
2022-12-06T00:44:41.847Z,42.50
2022-12-06T00:47:15.928Z,42.70
2022-12-06T00:49:48.818Z,40.00
2022-12-06T00:52:21.489Z,39.80
2022-12-06T00:54:54.577Z,40.30
2022-12-06T00:57:27.242Z,41.90
2022-12-06T01:00:00.160Z,40.40
2022-12-06T01:02:35.467Z,40.60
2022-12-06T01:05:14.867Z,40.50
2022-12-06T01:07:47.420Z,39.70
2022-12-06T01:10:20.461Z,42.10
2022-12-06T01:12:53.148Z,32.30
2022-12-06T01:15:26.809Z,41.60
2022-12-06T01:17:59.390Z,43.70
2022-12-06T01:20:32.330Z,42.80
2022-12-06T01:23:05.081Z,40.80
2022-12-06T01:25:38.165Z,46.30
2022-12-06T01:28:30.620Z,37.70
2022-12-06T01:31:07.932Z,41.70
2022-12-06T01:33:42.501Z,37.70
2022-12-06T01:36:21.848Z,37.30
2022-12-06T01:38:55.740Z,35.40
2022-12-06T01:41:29.210Z,35.70
2022-12-06T01:44:05.553Z,36.90
2022-12-06T01:46:41.770Z,36.80
2022-12-06T01:49:21.462Z,35.70
2022-12-06T01:51:58.139Z,35.80
2022-12-06T01:54:34.091Z,37.40
2022-12-06T01:57:11.021Z,35.80
2022-12-06T01:59:44.723Z,37.50
2022-12-06T05:35:42.179Z,29.60
2022-12-06T05:38:14.439Z,29.70
2022-12-06T05:40:48.663Z,30.40
2022-12-06T05:43:21.025Z,31.20
2022-12-06T05:45:55.637Z,29.20
2022-12-06T05:48:29.412Z,30.50
2022-12-06T05:51:01.471Z,30.60
2022-12-06T05:53:33.813Z,30.90
2022-12-06T05:56:11.551Z,31.10
2022-12-06T05:58:43.629Z,30.20
2022-12-06T06:01:15.629Z,31.50
2022-12-06T06:03:48.156Z,32.00
2022-12-06T06:06:21.531Z,24.90
2022-12-06T06:08:53.901Z,18.40
2022-12-06T06:11:26.012Z,29.50
2022-12-06T06:13:58.471Z,32.60
2022-12-06T06:16:33.130Z,30.10
2022-12-06T06:19:05.549Z,31.10
2022-12-06T06:21:38.988Z,32.40
2022-12-06T06:24:11.800Z,34.10
2022-12-06T06:26:44.091Z,30.70
2022-12-06T06:29:16.599Z,31.00
2022-12-06T06:31:48.926Z,21.10
2022-12-06T06:34:21.430Z,32.80
2022-12-06T06:36:53.809Z,30.40
2022-12-06T06:39:26.075Z,30.60
2022-12-06T06:41:58.242Z,32.60
2022-12-06T06:44:30.512Z,30.60
2022-12-06T06:47:03.011Z,29.80
2022-12-06T06:49:36.671Z,29.70
2022-12-06T06:52:08.952Z,28.20
2022-12-06T06:54:41.212Z,28.50
2022-12-06T06:57:17.643Z,30.50
2022-12-06T06:59:50.354Z,28.60
2022-12-06T07:02:22.583Z,29.60
2022-12-06T07:04:54.783Z,29.30
2022-12-06T07:07:26.742Z,29.30
2022-12-06T07:09:59.137Z,29.20
2022-12-06T07:12:31.831Z,29.70
2022-12-06T07:15:04.156Z,28.10
2022-12-06T07:17:36.699Z,28.50
2022-12-06T07:20:11.231Z,28.00
2022-12-06T07:22:46.784Z,25.30
2022-12-06T07:25:19.230Z,25.50
2022-12-06T07:27:52.611Z,25.50
2022-12-06T07:30:28.255Z,24.60
2022-12-06T07:33:00.713Z,22.70
2022-12-06T07:36:03.433Z,29.30
2022-12-06T07:38:25.022Z,29.60
2022-12-06T07:41:04.877Z,27.30
2022-12-06T07:43:54.483Z,26.00
2022-12-06T07:46:26.541Z,24.40
2022-12-06T07:48:59.901Z,25.50
2022-12-06T07:51:35.100Z,24.60
2022-12-06T07:54:07.978Z,23.20
2022-12-06T07:56:40.112Z,24.40
2022-12-06T07:59:12.640Z,26.30
2022-12-06T08:01:45.150Z,25.60
2022-12-06T08:04:19.090Z,26.40
2022-12-06T08:06:51.216Z,24.90
2022-12-06T08:09:23.544Z,25.90
2022-12-06T08:11:55.859Z,24.80
2022-12-06T08:14:28.042Z,22.40
2022-12-06T08:17:00.126Z,22.40
2022-12-06T08:19:35.564Z,22.00
2022-12-06T08:22:07.858Z,20.40
2022-12-06T08:24:40.604Z,18.70
2022-12-06T08:27:14.465Z,20.90
2022-12-06T08:29:46.694Z,19.20
2022-12-06T08:32:19.662Z,19.80
2022-12-06T08:34:53.143Z,21.30
2022-12-06T08:37:25.153Z,19.20
2022-12-06T08:39:57.460Z,19.30
2022-12-06T08:42:29.732Z,19.50
2022-12-06T08:45:02.073Z,19.30
2022-12-06T08:47:35.692Z,18.50
2022-12-06T08:50:09.618Z,21.70
2022-12-06T08:52:41.624Z,19.80
2022-12-06T08:55:13.932Z,17.90
2022-12-06T08:57:46.192Z,16.00
2022-12-06T09:00:20.041Z,17.90
2022-12-06T09:05:24.912Z,19.40
2022-12-06T09:07:57.816Z,20.00
2022-12-06T09:10:30.645Z,20.00
2022-12-06T09:13:03.191Z,17.20
2022-12-06T09:15:35.659Z,16.50
2022-12-06T09:18:07.802Z,17.80
2022-12-06T09:20:42.864Z,17.50
2022-12-06T09:23:15.432Z,19.40
2022-12-06T09:25:47.583Z,19.70
2022-12-06T09:28:20.771Z,22.10
2022-12-06T09:30:52.912Z,19.50
2022-12-06T09:33:25.763Z,19.20
2022-12-06T09:35:58.732Z,19.70
2022-12-06T09:38:32.890Z,20.60
2022-12-06T09:41:20.253Z,20.90
2022-12-06T09:44:10.732Z,18.40
2022-12-06T09:46:58.230Z,18.80
2022-12-06T09:49:38.354Z,17.20
2022-12-06T09:52:26.449Z,17.40
2022-12-06T09:55:14.631Z,17.60
2022-12-06T09:57:54.503Z,17.90
2022-12-06T10:00:29.092Z,16.90
2022-12-06T10:03:20.466Z,15.90
2022-12-06T10:06:03.184Z,16.40
2022-12-06T10:09:03.039Z,16.20
2022-12-06T10:11:49.112Z,15.30
2022-12-06T10:14:32.653Z,14.20
2022-12-06T10:17:13.552Z,15.10
2022-12-06T10:20:04.928Z,14.90
2022-12-06T10:22:52.551Z,15.90
2022-12-06T10:25:32.514Z,14.70
2022-12-06T10:28:14.292Z,15.40
2022-12-06T10:30:52.656Z,19.50
2022-12-06T10:33:39.475Z,19.10
2022-12-06T10:36:14.584Z,22.20
2022-12-06T10:38:52.102Z,19.50
2022-12-06T10:41:29.759Z,17.50
2022-12-06T10:44:09.193Z,17.60
2022-12-06T10:47:06.892Z,17.50
2022-12-06T10:49:48.394Z,17.40
2022-12-06T10:52:37.984Z,17.00
2022-12-06T10:55:23.546Z,16.40
2022-12-06T10:58:11.755Z,17.60
2022-12-06T11:00:54.127Z,23.50
2022-12-06T11:03:31.692Z,26.30
2022-12-06T11:06:13.432Z,22.80
2022-12-06T11:08:49.053Z,19.30
2022-12-06T11:11:26.012Z,18.80
2022-12-06T11:14:04.639Z,18.40
2022-12-06T11:16:43.173Z,16.20
2022-12-06T11:19:28.528Z,17.60
2022-12-06T11:22:06.182Z,16.00
2022-12-06T11:24:47.760Z,15.70
2022-12-06T11:27:26.166Z,16.20
2022-12-06T11:29:58.400Z,17.70
2022-12-06T11:32:32.907Z,16.80
2022-12-06T11:35:05.522Z,18.50
2022-12-06T11:37:44.161Z,19.80
2022-12-06T11:40:25.285Z,23.30
2022-12-06T11:43:00.634Z,24.00
2022-12-06T11:45:34.863Z,24.20
2022-12-06T11:48:16.857Z,36.70
2022-12-06T11:50:50.594Z,34.10
2022-12-06T11:53:31.074Z,25.70
2022-12-06T11:56:11.607Z,36.80
2022-12-06T11:58:53.226Z,63.80
2022-12-06T12:01:41.393Z,43.80
2022-12-06T12:04:35.011Z,31.20
2022-12-06T12:07:13.956Z,24.40
2022-12-06T12:09:53.186Z,39.30
2022-12-06T12:12:50.184Z,35.80
2022-12-06T12:15:27.884Z,28.20
2022-12-06T12:18:02.004Z,29.50
2022-12-06T12:23:10.923Z,44.20
2022-12-06T12:25:44.096Z,24.60
2022-12-06T12:28:29.302Z,38.60
2022-12-06T12:31:15.043Z,26.00
2022-12-06T12:33:47.645Z,24.40
2022-12-06T12:36:26.992Z,24.70
2022-12-06T12:39:01.961Z,25.30
2022-12-06T12:41:40.480Z,25.10
2022-12-06T12:44:37.747Z,29.30
2022-12-06T12:47:20.321Z,33.20
2022-12-06T12:50:05.901Z,28.60
2022-12-06T12:52:42.471Z,28.10
2022-12-06T12:55:24.583Z,27.10
2022-12-06T12:57:59.308Z,25.40
2022-12-06T13:00:36.715Z,30.50
2022-12-06T13:03:42.787Z,30.40
2022-12-06T13:06:17.831Z,33.40
2022-12-06T13:08:50.691Z,31.90
2022-12-06T13:11:25.923Z,33.00
2022-12-06T13:14:00.623Z,36.10
2022-12-06T13:16:37.983Z,34.10
2022-12-06T13:19:18.962Z,35.40
2022-12-06T13:21:52.740Z,33.10
2022-12-06T13:24:30.381Z,31.80
2022-12-06T13:27:05.152Z,27.90
2022-12-06T13:29:42.103Z,30.60
2022-12-06T13:32:21.274Z,28.70
2022-12-06T13:34:56.491Z,29.10
2022-12-06T13:37:43.234Z,28.30
2022-12-06T13:40:45.273Z,29.40
2022-12-06T13:43:58.073Z,52.30
2022-12-06T13:46:37.657Z,39.70
2022-12-06T13:49:27.433Z,30.30
2022-12-06T13:52:00.044Z,27.00
2022-12-06T13:54:36.204Z,26.50
2022-12-06T13:57:26.384Z,25.20
2022-12-06T14:00:01.491Z,24.90
2022-12-06T14:02:47.933Z,25.50
2022-12-06T14:08:35.182Z,23.80
2022-12-06T14:11:26.126Z,28.30
2022-12-06T14:14:09.286Z,44.10
2022-12-06T14:16:45.009Z,51.50
2022-12-06T14:19:21.233Z,32.70
2022-12-06T14:21:58.314Z,34.30
2022-12-06T14:24:33.172Z,30.50
2022-12-06T14:27:13.996Z,27.90
2022-12-06T14:30:00.835Z,26.30
2022-12-06T14:32:40.877Z,26.20
2022-12-06T14:35:16.766Z,29.30
2022-12-06T14:37:55.572Z,26.20
2022-12-06T14:40:52.888Z,21.70
2022-12-06T14:43:28.302Z,19.10
2022-12-06T14:46:02.020Z,25.10
2022-12-06T14:48:51.188Z,22.80
2022-12-06T14:51:26.153Z,17.60
2022-12-06T14:54:18.300Z,15.00
2022-12-06T14:56:55.745Z,13.60
2022-12-06T15:02:30.294Z,15.10
2022-12-06T15:05:02.773Z,13.90
2022-12-06T15:07:50.683Z,14.50
2022-12-06T15:10:30.280Z,13.20
2022-12-06T15:13:16.792Z,11.60
2022-12-06T15:15:50.740Z,11.70
2022-12-06T15:18:28.363Z,10.90
2022-12-06T15:21:00.504Z,9.70
2022-12-06T15:23:36.664Z,12.10
2022-12-06T15:26:13.322Z,10.90
2022-12-06T15:28:45.789Z,10.20
2022-12-06T15:31:21.642Z,9.80
2022-12-06T15:33:54.533Z,13.50
2022-12-06T15:36:29.964Z,28.20
2022-12-06T15:39:06.713Z,25.00
2022-12-06T15:41:43.598Z,31.40
2022-12-06T15:44:21.296Z,25.40
2022-12-06T15:46:54.150Z,16.60
2022-12-06T15:49:27.326Z,18.70
2022-12-06T15:51:59.685Z,18.50
2022-12-06T15:54:32.099Z,16.90
2022-12-06T15:57:05.269Z,15.20
2022-12-06T15:59:41.377Z,12.70
2022-12-06T16:02:22.240Z,13.40
2022-12-06T16:04:54.731Z,13.20
2022-12-06T16:07:27.692Z,13.20
2022-12-06T16:10:00.186Z,15.80
2022-12-06T16:12:52.900Z,16.50
2022-12-06T16:15:25.852Z,16.40
2022-12-06T16:17:58.445Z,16.30
2022-12-06T16:20:34.352Z,19.20
2022-12-06T16:23:49.508Z,21.10
2022-12-06T16:26:21.972Z,20.00
2022-12-06T16:28:54.780Z,23.90
2022-12-06T16:31:29.535Z,29.60
2022-12-06T16:34:01.801Z,27.00
2022-12-06T16:36:35.759Z,31.60
2022-12-06T16:39:10.335Z,22.70
2022-12-06T16:41:43.522Z,18.00
2022-12-06T16:44:15.634Z,18.20
2022-12-06T16:46:49.550Z,16.20
2022-12-06T16:52:16.959Z,16.70
2022-12-06T16:54:49.184Z,15.80
2022-12-06T16:57:22.343Z,15.70
2022-12-06T16:59:57.950Z,18.00
2022-12-06T17:02:32.562Z,17.30
2022-12-06T17:05:07.258Z,16.10
2022-12-06T17:07:42.424Z,15.60
2022-12-06T17:10:16.194Z,18.20
2022-12-06T17:12:49.982Z,17.30
2022-12-06T17:15:23.815Z,19.10
2022-12-06T17:20:29.067Z,17.00
2022-12-06T17:23:03.458Z,17.70
2022-12-06T17:25:35.855Z,16.60
2022-12-06T17:28:12.627Z,17.50
2022-12-06T17:30:50.870Z,18.50
2022-12-06T17:33:23.341Z,22.30
2022-12-06T17:35:55.830Z,21.30
2022-12-06T17:38:32.567Z,21.40
2022-12-06T17:41:25.703Z,17.70
2022-12-06T17:44:11.686Z,20.10
2022-12-06T17:46:45.515Z,22.10
2022-12-06T17:49:21.374Z,22.20
2022-12-06T17:54:45.563Z,20.50
2022-12-06T17:57:19.581Z,19.40
2022-12-06T17:59:52.952Z,24.00
2022-12-06T18:02:27.588Z,21.20
2022-12-06T18:05:00.888Z,22.30
2022-12-06T18:07:34.079Z,29.60
2022-12-06T18:10:08.208Z,23.50
2022-12-06T18:12:43.265Z,25.20
2022-12-06T18:15:29.867Z,20.40
2022-12-06T18:18:06.304Z,18.50
2022-12-06T18:20:40.039Z,17.80
2022-12-06T18:23:16.365Z,13.10
2022-12-06T18:25:49.354Z,14.80
2022-12-06T18:28:21.543Z,19.00
2022-12-06T18:30:53.854Z,19.80
2022-12-06T18:33:29.643Z,20.80
2022-12-06T18:36:05.802Z,20.90
2022-12-06T18:38:38.266Z,19.80
2022-12-06T18:41:12.483Z,21.00
2022-12-06T18:43:44.662Z,22.10
2022-12-06T18:46:20.248Z,22.30
2022-12-06T18:48:54.503Z,25.10
2022-12-06T18:51:29.054Z,22.70
2022-12-06T18:54:02.704Z,22.20
2022-12-06T18:56:36.523Z,22.70
2022-12-06T19:01:42.781Z,20.40
2022-12-06T19:04:19.004Z,20.70
2022-12-06T19:06:52.063Z,25.10
2022-12-06T19:09:26.056Z,26.20
2022-12-06T19:11:58.086Z,33.30
2022-12-06T19:14:30.703Z,32.10
2022-12-06T19:17:03.100Z,28.30
2022-12-06T19:19:35.513Z,24.30
2022-12-06T19:22:08.123Z,21.20
2022-12-06T19:24:40.426Z,20.20
2022-12-06T19:27:12.923Z,17.90
2022-12-06T19:29:45.233Z,19.80
2022-12-06T19:32:17.273Z,15.80
2022-12-06T19:34:50.563Z,14.00
2022-12-06T19:37:22.654Z,12.50
2022-12-06T19:39:55.307Z,12.30
2022-12-06T19:42:45.448Z,11.00
2022-12-06T19:45:18.073Z,12.20
2022-12-06T19:47:50.332Z,11.30
2022-12-06T19:50:22.631Z,10.90
2022-12-06T19:52:58.084Z,11.70
2022-12-06T19:55:31.052Z,11.90
2022-12-06T19:58:04.393Z,12.00
2022-12-06T20:00:42.884Z,11.70
2022-12-06T20:03:18.763Z,12.40
2022-12-06T20:06:04.064Z,16.20
2022-12-06T20:08:39.226Z,15.60
2022-12-06T20:11:36.262Z,15.60
2022-12-06T20:14:10.343Z,13.50
2022-12-06T20:16:42.790Z,13.70
2022-12-06T20:19:37.951Z,11.60
2022-12-06T20:22:12.482Z,11.90
2022-12-06T20:24:45.954Z,12.20
2022-12-06T20:27:18.242Z,12.50
2022-12-06T20:29:50.542Z,10.40
2022-12-06T20:32:26.722Z,10.30
2022-12-06T20:34:59.309Z,11.60
2022-12-06T20:37:31.660Z,10.90
2022-12-06T20:40:04.210Z,10.80
2022-12-06T20:42:36.900Z,11.60
2022-12-06T20:45:10.412Z,10.50
2022-12-06T20:47:43.774Z,9.70
2022-12-06T20:50:16.652Z,9.50
2022-12-06T20:52:49.123Z,9.20
2022-12-06T20:55:21.446Z,9.50
2022-12-06T20:57:53.699Z,9.40
2022-12-06T21:00:27.479Z,9.60
2022-12-06T21:05:30.524Z,7.70
2022-12-06T21:08:10.231Z,7.40
2022-12-06T21:11:13.912Z,7.60
2022-12-06T21:13:37.434Z,8.10
2022-12-06T21:16:14.461Z,8.30
2022-12-06T21:18:47.913Z,8.40
2022-12-06T21:21:26.814Z,7.80
2022-12-06T21:24:01.933Z,8.80
2022-12-06T21:26:34.453Z,8.00
2022-12-06T21:29:07.002Z,8.40
2022-12-06T21:31:41.342Z,8.40
2022-12-06T21:34:15.742Z,8.80
2022-12-06T21:36:50.600Z,9.40
2022-12-06T21:39:25.745Z,10.80
2022-12-06T21:41:58.474Z,9.70
2022-12-06T21:44:30.452Z,9.20
2022-12-06T21:47:02.409Z,10.10
2022-12-06T21:49:34.574Z,10.30
2022-12-06T21:52:09.410Z,11.20
2022-12-06T21:54:42.393Z,10.60
2022-12-06T21:57:14.422Z,11.30
2022-12-06T21:59:48.953Z,12.00
2022-12-06T22:02:21.222Z,12.60
2022-12-06T22:04:53.612Z,12.90
2022-12-06T22:07:28.223Z,11.70
2022-12-06T22:10:00.936Z,11.10
2022-12-06T22:12:33.462Z,9.80
2022-12-06T22:15:06.973Z,12.00
2022-12-06T22:17:41.983Z,12.50
2022-12-06T22:20:14.402Z,12.20
2022-12-06T22:22:46.843Z,13.00
2022-12-06T22:25:21.702Z,11.40
2022-12-06T22:27:55.426Z,13.30
2022-12-06T22:32:58.546Z,12.00
2022-12-06T22:35:30.704Z,11.60
2022-12-06T22:38:02.873Z,11.60
2022-12-06T22:40:36.692Z,11.60
2022-12-06T22:45:41.804Z,10.40
2022-12-06T22:48:14.122Z,10.90
2022-12-06T22:50:46.194Z,12.20
2022-12-06T22:53:18.404Z,11.90
2022-12-06T22:55:50.773Z,12.40
2022-12-06T22:58:23.192Z,11.80
2022-12-06T23:00:55.189Z,8.70
2022-12-06T23:03:27.993Z,13.80
2022-12-06T23:06:03.615Z,13.90
2022-12-06T23:08:44.438Z,13.50
2022-12-06T23:11:19.145Z,14.50
2022-12-06T23:13:51.282Z,15.10
2022-12-06T23:16:25.731Z,15.50
2022-12-06T23:18:58.782Z,15.20
2022-12-06T23:21:32.860Z,16.00
2022-12-06T23:26:37.713Z,16.80
2022-12-06T23:29:10.143Z,16.60
2022-12-06T23:31:46.844Z,17.30
2022-12-06T23:34:22.547Z,18.60
2022-12-06T23:36:55.428Z,18.50
2022-12-06T23:39:27.465Z,18.30
2022-12-06T23:41:59.587Z,19.20
2022-12-06T23:44:31.727Z,18.10
2022-12-06T23:47:04.202Z,17.90
2022-12-06T23:49:38.678Z,17.70
2022-12-06T23:52:11.023Z,17.40
2022-12-06T23:54:44.663Z,18.60
2022-12-06T23:59:47.082Z,15.90
